sensor_id;sensor_type;location;lat;lon;timestamp;P1;durP1;ratioP1;P2;durP2;ratioP2
49458;SDS011;35354;51.296;16.924;2023-03-11T00:00:38;7.82;;;5.07;;
49458;SDS011;35354;51.296;16.924;2023-03-11T00:03:07;6.78;;;4.55;;
49458;SDS011;35354;51.296;16.924;2023-03-11T00:05:36;5.70;;;4.18;;
49458;SDS011;35354;51.296;16.924;2023-03-11T00:08:04;4.18;;;3.15;;
49458;SDS011;35354;51.296;16.924;2023-03-11T00:10:32;5.95;;;3.85;;
49458;SDS011;35354;51.296;16.924;2023-03-11T00:13:00;5.50;;;2.97;;
49458;SDS011;35354;51.296;16.924;2023-03-11T00:15:26;3.25;;;2.90;;
49458;SDS011;35354;51.296;16.924;2023-03-11T00:17:53;4.18;;;3.25;;
49458;SDS011;35354;51.296;16.924;2023-03-11T00:20:21;5.47;;;3.78;;
49458;SDS011;35354;51.296;16.924;2023-03-11T00:22:51;5.10;;;4.30;;
49458;SDS011;35354;51.296;16.924;2023-03-11T00:25:17;6.15;;;3.45;;
49458;SDS011;35354;51.296;16.924;2023-03-11T00:27:44;3.92;;;3.25;;
49458;SDS011;35354;51.296;16.924;2023-03-11T00:30:10;4.30;;;3.20;;
49458;SDS011;35354;51.296;16.924;2023-03-11T00:32:37;4.35;;;3.53;;
49458;SDS011;35354;51.296;16.924;2023-03-11T00:35:02;3.35;;;3.00;;
49458;SDS011;35354;51.296;16.924;2023-03-11T00:37:29;5.28;;;3.50;;
49458;SDS011;35354;51.296;16.924;2023-03-11T00:39:54;5.28;;;3.47;;
49458;SDS011;35354;51.296;16.924;2023-03-11T00:42:19;4.10;;;3.70;;
49458;SDS011;35354;51.296;16.924;2023-03-11T00:44:45;4.03;;;3.40;;
49458;SDS011;35354;51.296;16.924;2023-03-11T00:47:10;4.22;;;3.60;;
49458;SDS011;35354;51.296;16.924;2023-03-11T00:49:36;5.57;;;3.92;;
49458;SDS011;35354;51.296;16.924;2023-03-11T00:52:01;5.70;;;3.58;;
49458;SDS011;35354;51.296;16.924;2023-03-11T00:54:27;5.38;;;4.30;;
49458;SDS011;35354;51.296;16.924;2023-03-11T00:56:52;4.63;;;4.00;;
49458;SDS011;35354;51.296;16.924;2023-03-11T00:59:17;4.53;;;3.47;;
49458;SDS011;35354;51.296;16.924;2023-03-11T01:01:43;3.78;;;2.95;;
49458;SDS011;35354;51.296;16.924;2023-03-11T01:04:08;3.10;;;2.70;;
49458;SDS011;35354;51.296;16.924;2023-03-11T01:06:33;2.58;;;2.30;;
49458;SDS011;35354;51.296;16.924;2023-03-11T01:08:59;3.20;;;2.67;;
49458;SDS011;35354;51.296;16.924;2023-03-11T01:11:24;3.05;;;2.58;;
49458;SDS011;35354;51.296;16.924;2023-03-11T01:13:49;3.33;;;2.20;;
49458;SDS011;35354;51.296;16.924;2023-03-11T01:16:15;2.58;;;2.38;;
49458;SDS011;35354;51.296;16.924;2023-03-11T01:18:40;2.95;;;2.53;;
49458;SDS011;35354;51.296;16.924;2023-03-11T01:21:05;2.72;;;2.13;;
49458;SDS011;35354;51.296;16.924;2023-03-11T01:23:31;2.42;;;2.22;;
49458;SDS011;35354;51.296;16.924;2023-03-11T01:25:56;2.50;;;2.30;;
49458;SDS011;35354;51.296;16.924;2023-03-11T01:28:22;2.45;;;2.20;;
49458;SDS011;35354;51.296;16.924;2023-03-11T01:30:47;2.78;;;2.47;;
49458;SDS011;35354;51.296;16.924;2023-03-11T01:33:16;2.60;;;2.40;;
49458;SDS011;35354;51.296;16.924;2023-03-11T01:35:43;2.00;;;1.80;;
49458;SDS011;35354;51.296;16.924;2023-03-11T01:38:09;2.10;;;1.90;;
49458;SDS011;35354;51.296;16.924;2023-03-11T01:40:36;2.50;;;1.80;;
49458;SDS011;35354;51.296;16.924;2023-03-11T01:48:39;1.63;;;1.52;;
49458;SDS011;35354;51.296;16.924;2023-03-11T01:51:10;1.60;;;1.50;;
49458;SDS011;35354;51.296;16.924;2023-03-11T01:53:35;2.35;;;1.38;;
49458;SDS011;35354;51.296;16.924;2023-03-11T01:56:01;1.58;;;1.48;;
49458;SDS011;35354;51.296;16.924;2023-03-11T01:58:30;1.40;;;1.30;;
49458;SDS011;35354;51.296;16.924;2023-03-11T02:00:58;1.30;;;1.20;;
49458;SDS011;35354;51.296;16.924;2023-03-11T02:03:29;1.30;;;1.20;;
49458;SDS011;35354;51.296;16.924;2023-03-11T02:05:57;1.23;;;1.13;;
49458;SDS011;35354;51.296;16.924;2023-03-11T02:08:25;2.72;;;1.42;;
49458;SDS011;35354;51.296;16.924;2023-03-11T02:10:50;1.40;;;1.30;;
49458;SDS011;35354;51.296;16.924;2023-03-11T02:13:17;1.25;;;1.17;;
49458;SDS011;35354;51.296;16.924;2023-03-11T02:15:44;1.20;;;1.10;;
49458;SDS011;35354;51.296;16.924;2023-03-11T02:18:09;1.42;;;1.33;;
49458;SDS011;35354;51.296;16.924;2023-03-11T02:20:44;2.17;;;1.30;;
49458;SDS011;35354;51.296;16.924;2023-03-11T02:23:16;1.58;;;1.42;;
49458;SDS011;35354;51.296;16.924;2023-03-11T02:28:52;3.13;;;1.75;;
49458;SDS011;35354;51.296;16.924;2023-03-11T02:31:19;1.60;;;1.50;;
49458;SDS011;35354;51.296;16.924;2023-03-11T02:33:46;1.50;;;1.40;;
49458;SDS011;35354;51.296;16.924;2023-03-11T02:39:00;1.52;;;1.42;;
49458;SDS011;35354;51.296;16.924;2023-03-11T02:41:26;2.50;;;2.10;;
49458;SDS011;35354;51.296;16.924;2023-03-11T02:43:52;2.30;;;2.10;;
49458;SDS011;35354;51.296;16.924;2023-03-11T02:46:18;2.55;;;2.33;;
49458;SDS011;35354;51.296;16.924;2023-03-11T02:48:44;2.80;;;2.58;;
49458;SDS011;35354;51.296;16.924;2023-03-11T02:51:10;2.42;;;2.15;;
49458;SDS011;35354;51.296;16.924;2023-03-11T02:53:36;3.95;;;2.40;;
49458;SDS011;35354;51.296;16.924;2023-03-11T02:56:06;2.40;;;2.20;;
49458;SDS011;35354;51.296;16.924;2023-03-11T02:58:31;2.72;;;2.50;;
49458;SDS011;35354;51.296;16.924;2023-03-11T03:00:57;2.55;;;2.35;;
49458;SDS011;35354;51.296;16.924;2023-03-11T03:03:22;2.20;;;2.00;;
49458;SDS011;35354;51.296;16.924;2023-03-11T03:05:47;2.10;;;2.00;;
49458;SDS011;35354;51.296;16.924;2023-03-11T03:08:12;1.80;;;1.70;;
49458;SDS011;35354;51.296;16.924;2023-03-11T03:10:38;1.88;;;1.40;;
49458;SDS011;35354;51.296;16.924;2023-03-11T03:13:03;1.48;;;1.38;;
49458;SDS011;35354;51.296;16.924;2023-03-11T03:15:28;1.83;;;1.00;;
49458;SDS011;35354;51.296;16.924;2023-03-11T03:17:54;0.80;;;0.80;;
49458;SDS011;35354;51.296;16.924;2023-03-11T03:20:19;0.93;;;0.90;;
49458;SDS011;35354;51.296;16.924;2023-03-11T03:22:46;0.90;;;0.90;;
49458;SDS011;35354;51.296;16.924;2023-03-11T03:25:12;0.90;;;0.70;;
49458;SDS011;35354;51.296;16.924;2023-03-11T03:27:37;1.52;;;0.90;;
49458;SDS011;35354;51.296;16.924;2023-03-11T03:30:04;0.90;;;0.90;;
49458;SDS011;35354;51.296;16.924;2023-03-11T03:32:30;0.73;;;0.73;;
49458;SDS011;35354;51.296;16.924;2023-03-11T03:34:55;0.90;;;0.90;;
49458;SDS011;35354;51.296;16.924;2023-03-11T03:37:23;1.05;;;1.05;;
49458;SDS011;35354;51.296;16.924;2023-03-11T03:39:50;1.15;;;1.05;;
49458;SDS011;35354;51.296;16.924;2023-03-11T03:42:15;1.15;;;1.05;;
49458;SDS011;35354;51.296;16.924;2023-03-11T03:44:40;1.02;;;1.02;;
49458;SDS011;35354;51.296;16.924;2023-03-11T03:47:06;1.30;;;1.20;;
49458;SDS011;35354;51.296;16.924;2023-03-11T03:49:31;1.30;;;1.20;;
49458;SDS011;35354;51.296;16.924;2023-03-11T03:51:56;0.80;;;0.80;;
49458;SDS011;35354;51.296;16.924;2023-03-11T03:54:22;0.90;;;0.90;;
49458;SDS011;35354;51.296;16.924;2023-03-11T03:56:47;1.00;;;0.90;;
49458;SDS011;35354;51.296;16.924;2023-03-11T03:59:12;1.23;;;0.88;;
49458;SDS011;35354;51.296;16.924;2023-03-11T04:01:38;1.27;;;0.82;;
49458;SDS011;35354;51.296;16.924;2023-03-11T04:04:03;1.13;;;0.90;;
49458;SDS011;35354;51.296;16.924;2023-03-11T04:06:29;1.45;;;0.80;;
49458;SDS011;35354;51.296;16.924;2023-03-11T04:08:54;0.40;;;0.40;;
49458;SDS011;35354;51.296;16.924;2023-03-11T04:11:20;0.95;;;0.60;;
49458;SDS011;35354;51.296;16.924;2023-03-11T04:13:46;0.70;;;0.70;;
49458;SDS011;35354;51.296;16.924;2023-03-11T04:16:15;0.60;;;0.60;;
49458;SDS011;35354;51.296;16.924;2023-03-11T04:18:43;1.13;;;0.90;;
49458;SDS011;35354;51.296;16.924;2023-03-11T04:21:08;0.65;;;0.65;;
49458;SDS011;35354;51.296;16.924;2023-03-11T04:23:33;0.70;;;0.70;;
49458;SDS011;35354;51.296;16.924;2023-03-11T04:25:59;6.32;;;1.15;;
49458;SDS011;35354;51.296;16.924;2023-03-11T04:28:26;0.90;;;0.90;;
49458;SDS011;35354;51.296;16.924;2023-03-11T04:30:51;0.80;;;0.80;;
49458;SDS011;35354;51.296;16.924;2023-03-11T04:33:16;0.80;;;0.80;;
49458;SDS011;35354;51.296;16.924;2023-03-11T04:35:42;0.98;;;0.88;;
49458;SDS011;35354;51.296;16.924;2023-03-11T04:38:07;0.80;;;0.80;;
49458;SDS011;35354;51.296;16.924;2023-03-11T04:40:32;1.05;;;0.93;;
49458;SDS011;35354;51.296;16.924;2023-03-11T04:42:58;1.10;;;1.00;;
49458;SDS011;35354;51.296;16.924;2023-03-11T04:45:23;0.68;;;0.68;;
49458;SDS011;35354;51.296;16.924;2023-03-11T04:47:49;0.80;;;0.80;;
49458;SDS011;35354;51.296;16.924;2023-03-11T04:50:15;0.90;;;0.90;;
49458;SDS011;35354;51.296;16.924;2023-03-11T04:52:41;0.90;;;0.90;;
49458;SDS011;35354;51.296;16.924;2023-03-11T04:55:07;0.75;;;0.75;;
49458;SDS011;35354;51.296;16.924;2023-03-11T04:57:33;1.15;;;1.05;;
49458;SDS011;35354;51.296;16.924;2023-03-11T04:59:58;1.65;;;1.48;;
49458;SDS011;35354;51.296;16.924;2023-03-11T05:02:24;1.30;;;0.90;;
49458;SDS011;35354;51.296;16.924;2023-03-11T05:04:49;1.30;;;1.00;;
49458;SDS011;35354;51.296;16.924;2023-03-11T05:07:15;0.93;;;0.88;;
49458;SDS011;35354;51.296;16.924;2023-03-11T05:09:40;0.80;;;0.80;;
49458;SDS011;35354;51.296;16.924;2023-03-11T05:12:05;0.95;;;0.82;;
49458;SDS011;35354;51.296;16.924;2023-03-11T05:14:31;0.90;;;0.90;;
49458;SDS011;35354;51.296;16.924;2023-03-11T05:16:56;0.85;;;0.85;;
49458;SDS011;35354;51.296;16.924;2023-03-11T05:19:22;0.85;;;0.85;;
49458;SDS011;35354;51.296;16.924;2023-03-11T05:21:58;1.95;;;0.98;;
49458;SDS011;35354;51.296;16.924;2023-03-11T05:24:24;0.90;;;0.90;;
49458;SDS011;35354;51.296;16.924;2023-03-11T05:26:52;1.25;;;1.20;;
49458;SDS011;35354;51.296;16.924;2023-03-11T05:29:17;1.10;;;1.00;;
49458;SDS011;35354;51.296;16.924;2023-03-11T05:31:43;1.10;;;1.10;;
49458;SDS011;35354;51.296;16.924;2023-03-11T05:34:08;0.90;;;0.90;;
49458;SDS011;35354;51.296;16.924;2023-03-11T05:36:33;0.80;;;0.80;;
49458;SDS011;35354;51.296;16.924;2023-03-11T05:38:59;1.10;;;1.00;;
49458;SDS011;35354;51.296;16.924;2023-03-11T05:41:24;0.98;;;0.93;;
49458;SDS011;35354;51.296;16.924;2023-03-11T05:43:49;1.05;;;1.00;;
49458;SDS011;35354;51.296;16.924;2023-03-11T05:46:15;1.40;;;1.20;;
49458;SDS011;35354;51.296;16.924;2023-03-11T05:48:40;1.20;;;1.10;;
49458;SDS011;35354;51.296;16.924;2023-03-11T05:51:06;1.20;;;1.10;;
49458;SDS011;35354;51.296;16.924;2023-03-11T05:53:33;1.63;;;1.30;;
49458;SDS011;35354;51.296;16.924;2023-03-11T05:55:58;1.23;;;1.13;;
49458;SDS011;35354;51.296;16.924;2023-03-11T05:58:24;1.75;;;1.27;;
49458;SDS011;35354;51.296;16.924;2023-03-11T06:00:51;1.65;;;1.20;;
49458;SDS011;35354;51.296;16.924;2023-03-11T06:03:16;1.40;;;1.25;;
49458;SDS011;35354;51.296;16.924;2023-03-11T06:05:45;1.50;;;1.17;;
49458;SDS011;35354;51.296;16.924;2023-03-11T06:08:11;1.40;;;1.30;;
49458;SDS011;35354;51.296;16.924;2023-03-11T06:10:37;1.52;;;1.40;;
49458;SDS011;35354;51.296;16.924;2023-03-11T06:13:02;1.65;;;1.50;;
49458;SDS011;35354;51.296;16.924;2023-03-11T06:15:28;1.60;;;1.50;;
49458;SDS011;35354;51.296;16.924;2023-03-11T06:17:53;1.45;;;1.23;;
49458;SDS011;35354;51.296;16.924;2023-03-11T06:20:18;3.50;;;1.90;;
49458;SDS011;35354;51.296;16.924;2023-03-11T06:22:44;2.15;;;1.80;;
49458;SDS011;35354;51.296;16.924;2023-03-11T06:25:12;3.20;;;2.33;;
49458;SDS011;35354;51.296;16.924;2023-03-11T06:27:37;3.95;;;3.05;;
49458;SDS011;35354;51.296;16.924;2023-03-11T06:30:03;5.43;;;3.92;;
49458;SDS011;35354;51.296;16.924;2023-03-11T06:32:28;5.50;;;3.47;;
49458;SDS011;35354;51.296;16.924;2023-03-11T06:34:54;6.43;;;3.83;;
49458;SDS011;35354;51.296;16.924;2023-03-11T06:37:19;5.38;;;3.88;;
49458;SDS011;35354;51.296;16.924;2023-03-11T06:39:45;3.95;;;2.60;;
49458;SDS011;35354;51.296;16.924;2023-03-11T06:42:11;5.18;;;2.65;;
49458;SDS011;35354;51.296;16.924;2023-03-11T06:44:36;6.65;;;3.30;;
49458;SDS011;35354;51.296;16.924;2023-03-11T06:47:02;4.82;;;2.70;;
49458;SDS011;35354;51.296;16.924;2023-03-11T06:49:27;4.10;;;2.70;;
49458;SDS011;35354;51.296;16.924;2023-03-11T06:51:53;3.50;;;2.75;;
49458;SDS011;35354;51.296;16.924;2023-03-11T06:54:18;5.22;;;2.95;;
49458;SDS011;35354;51.296;16.924;2023-03-11T06:56:43;6.35;;;4.40;;
49458;SDS011;35354;51.296;16.924;2023-03-11T06:59:09;8.27;;;4.05;;
49458;SDS011;35354;51.296;16.924;2023-03-11T07:01:34;5.28;;;3.75;;
49458;SDS011;35354;51.296;16.924;2023-03-11T07:04:00;6.60;;;4.22;;
49458;SDS011;35354;51.296;16.924;2023-03-11T07:06:26;6.72;;;4.60;;
49458;SDS011;35354;51.296;16.924;2023-03-11T07:08:52;8.85;;;4.80;;
49458;SDS011;35354;51.296;16.924;2023-03-11T07:11:22;6.13;;;4.35;;
49458;SDS011;35354;51.296;16.924;2023-03-11T07:13:50;5.47;;;4.07;;
49458;SDS011;35354;51.296;16.924;2023-03-11T07:16:17;6.82;;;4.40;;
49458;SDS011;35354;51.296;16.924;2023-03-11T07:18:45;5.35;;;3.75;;
49458;SDS011;35354;51.296;16.924;2023-03-11T07:21:15;7.03;;;4.22;;
49458;SDS011;35354;51.296;16.924;2023-03-11T07:23:42;4.85;;;4.25;;
49458;SDS011;35354;51.296;16.924;2023-03-11T07:26:09;4.35;;;3.40;;
49458;SDS011;35354;51.296;16.924;2023-03-11T07:28:35;7.20;;;5.50;;
49458;SDS011;35354;51.296;16.924;2023-03-11T07:31:08;10.55;;;7.13;;
49458;SDS011;35354;51.296;16.924;2023-03-11T07:33:35;11.85;;;9.23;;
49458;SDS011;35354;51.296;16.924;2023-03-11T07:36:04;11.70;;;7.22;;
49458;SDS011;35354;51.296;16.924;2023-03-11T07:38:32;15.93;;;9.63;;
49458;SDS011;35354;51.296;16.924;2023-03-11T07:40:58;13.43;;;9.20;;
49458;SDS011;35354;51.296;16.924;2023-03-11T07:43:23;7.82;;;6.00;;
49458;SDS011;35354;51.296;16.924;2023-03-11T07:45:49;5.97;;;5.18;;
49458;SDS011;35354;51.296;16.924;2023-03-11T07:48:15;7.13;;;5.95;;
49458;SDS011;35354;51.296;16.924;2023-03-11T07:50:41;6.05;;;5.00;;
49458;SDS011;35354;51.296;16.924;2023-03-11T07:53:06;9.27;;;6.95;;
49458;SDS011;35354;51.296;16.924;2023-03-11T07:55:32;6.53;;;5.22;;
49458;SDS011;35354;51.296;16.924;2023-03-11T07:57:57;7.45;;;5.70;;
49458;SDS011;35354;51.296;16.924;2023-03-11T08:00:23;7.95;;;6.40;;
49458;SDS011;35354;51.296;16.924;2023-03-11T08:02:48;8.55;;;6.53;;
49458;SDS011;35354;51.296;16.924;2023-03-11T08:05:13;11.00;;;8.63;;
49458;SDS011;35354;51.296;16.924;2023-03-11T08:07:39;6.68;;;6.03;;
49458;SDS011;35354;51.296;16.924;2023-03-11T08:10:04;9.02;;;7.05;;
49458;SDS011;35354;51.296;16.924;2023-03-11T08:12:30;11.75;;;8.73;;
49458;SDS011;35354;51.296;16.924;2023-03-11T08:14:56;9.98;;;7.57;;
49458;SDS011;35354;51.296;16.924;2023-03-11T08:17:21;12.88;;;8.75;;
49458;SDS011;35354;51.296;16.924;2023-03-11T08:19:47;11.32;;;8.23;;
49458;SDS011;35354;51.296;16.924;2023-03-11T08:22:13;15.25;;;10.80;;
49458;SDS011;35354;51.296;16.924;2023-03-11T08:24:38;14.90;;;10.77;;
49458;SDS011;35354;51.296;16.924;2023-03-11T08:27:04;11.52;;;9.20;;
49458;SDS011;35354;51.296;16.924;2023-03-11T08:29:29;10.05;;;7.97;;
49458;SDS011;35354;51.296;16.924;2023-03-11T08:31:55;10.55;;;8.20;;
49458;SDS011;35354;51.296;16.924;2023-03-11T08:34:20;8.35;;;7.15;;
49458;SDS011;35354;51.296;16.924;2023-03-11T08:36:46;10.50;;;8.13;;
49458;SDS011;35354;51.296;16.924;2023-03-11T08:39:11;13.20;;;9.00;;
49458;SDS011;35354;51.296;16.924;2023-03-11T08:41:37;9.52;;;7.70;;
49458;SDS011;35354;51.296;16.924;2023-03-11T08:44:02;9.35;;;7.30;;
49458;SDS011;35354;51.296;16.924;2023-03-11T08:48:55;10.93;;;7.57;;
49458;SDS011;35354;51.296;16.924;2023-03-11T08:51:22;8.10;;;5.80;;
49458;SDS011;35354;51.296;16.924;2023-03-11T08:53:48;7.50;;;5.95;;
49458;SDS011;35354;51.296;16.924;2023-03-11T08:56:14;8.95;;;6.75;;
49458;SDS011;35354;51.296;16.924;2023-03-11T08:58:40;8.90;;;6.28;;
49458;SDS011;35354;51.296;16.924;2023-03-11T09:01:06;9.15;;;6.40;;
49458;SDS011;35354;51.296;16.924;2023-03-11T09:03:33;7.32;;;6.32;;
49458;SDS011;35354;51.296;16.924;2023-03-11T09:06:00;5.38;;;4.80;;
49458;SDS011;35354;51.296;16.924;2023-03-11T09:08:27;5.53;;;4.88;;
49458;SDS011;35354;51.296;16.924;2023-03-11T09:10:54;4.35;;;3.78;;
49458;SDS011;35354;51.296;16.924;2023-03-11T09:13:20;7.32;;;5.55;;
49458;SDS011;35354;51.296;16.924;2023-03-11T09:15:47;9.02;;;5.72;;
49458;SDS011;35354;51.296;16.924;2023-03-11T09:18:13;8.35;;;5.97;;
49458;SDS011;35354;51.296;16.924;2023-03-11T09:20:40;31.65;;;19.45;;
49458;SDS011;35354;51.296;16.924;2023-03-11T09:23:06;14.02;;;8.85;;
49458;SDS011;35354;51.296;16.924;2023-03-11T09:25:33;6.85;;;5.05;;
49458;SDS011;35354;51.296;16.924;2023-03-11T09:27:59;31.25;;;22.10;;
49458;SDS011;35354;51.296;16.924;2023-03-11T09:30:24;32.10;;;17.75;;
49458;SDS011;35354;51.296;16.924;2023-03-11T09:32:50;7.13;;;6.20;;
49458;SDS011;35354;51.296;16.924;2023-03-11T09:35:15;6.00;;;5.10;;
49458;SDS011;35354;51.296;16.924;2023-03-11T09:37:41;7.68;;;5.20;;
49458;SDS011;35354;51.296;16.924;2023-03-11T09:40:06;5.25;;;4.75;;
49458;SDS011;35354;51.296;16.924;2023-03-11T09:42:33;8.48;;;6.78;;
49458;SDS011;35354;51.296;16.924;2023-03-11T09:50:48;5.88;;;4.20;;
49458;SDS011;35354;51.296;16.924;2023-03-11T09:55:49;5.10;;;4.10;;
49458;SDS011;35354;51.296;16.924;2023-03-11T10:01:24;5.32;;;4.75;;
49458;SDS011;35354;51.296;16.924;2023-03-11T10:03:55;5.28;;;4.75;;
49458;SDS011;35354;51.296;16.924;2023-03-11T10:06:41;7.30;;;5.15;;
49458;SDS011;35354;51.296;16.924;2023-03-11T10:14:53;11.60;;;7.25;;
49458;SDS011;35354;51.296;16.924;2023-03-11T10:23:36;11.77;;;7.15;;
49458;SDS011;35354;51.296;16.924;2023-03-11T10:31:25;19.95;;;10.82;;
49458;SDS011;35354;51.296;16.924;2023-03-11T10:33:59;14.23;;;8.10;;
49458;SDS011;35354;51.296;16.924;2023-03-11T10:36:39;10.60;;;6.53;;
49458;SDS011;35354;51.296;16.924;2023-03-11T10:39:15;10.23;;;6.45;;
49458;SDS011;35354;51.296;16.924;2023-03-11T10:41:43;7.82;;;5.63;;
49458;SDS011;35354;51.296;16.924;2023-03-11T10:44:33;8.73;;;5.80;;
49458;SDS011;35354;51.296;16.924;2023-03-11T10:47:03;7.28;;;5.47;;
49458;SDS011;35354;51.296;16.924;2023-03-11T10:49:30;6.60;;;4.55;;
49458;SDS011;35354;51.296;16.924;2023-03-11T10:51:56;7.32;;;5.78;;
49458;SDS011;35354;51.296;16.924;2023-03-11T10:54:27;7.50;;;5.82;;
49458;SDS011;35354;51.296;16.924;2023-03-11T10:56:56;9.15;;;6.28;;
49458;SDS011;35354;51.296;16.924;2023-03-11T11:01:57;15.10;;;9.13;;
49458;SDS011;35354;51.296;16.924;2023-03-11T11:04:27;10.57;;;7.25;;
49458;SDS011;35354;51.296;16.924;2023-03-11T11:07:20;11.32;;;7.32;;
49458;SDS011;35354;51.296;16.924;2023-03-11T11:10:11;12.57;;;7.90;;
49458;SDS011;35354;51.296;16.924;2023-03-11T11:12:58;10.30;;;6.85;;
49458;SDS011;35354;51.296;16.924;2023-03-11T11:15:38;10.13;;;7.22;;
49458;SDS011;35354;51.296;16.924;2023-03-11T11:18:14;13.98;;;7.13;;
49458;SDS011;35354;51.296;16.924;2023-03-11T11:20:51;14.73;;;9.18;;
49458;SDS011;35354;51.296;16.924;2023-03-11T11:23:23;13.85;;;8.63;;
49458;SDS011;35354;51.296;16.924;2023-03-11T11:25:58;15.43;;;10.35;;
49458;SDS011;35354;51.296;16.924;2023-03-11T11:28:26;15.50;;;10.40;;
49458;SDS011;35354;51.296;16.924;2023-03-11T11:30:56;12.23;;;8.85;;
49458;SDS011;35354;51.296;16.924;2023-03-11T11:33:24;12.67;;;7.30;;
49458;SDS011;35354;51.296;16.924;2023-03-11T11:35:56;17.50;;;9.93;;
49458;SDS011;35354;51.296;16.924;2023-03-11T11:38:24;14.23;;;8.90;;
49458;SDS011;35354;51.296;16.924;2023-03-11T11:40:52;13.98;;;9.00;;
49458;SDS011;35354;51.296;16.924;2023-03-11T11:49:17;9.73;;;6.78;;
49458;SDS011;35354;51.296;16.924;2023-03-11T11:57:25;14.50;;;7.15;;
49458;SDS011;35354;51.296;16.924;2023-03-11T11:59:51;10.50;;;7.80;;
49458;SDS011;35354;51.296;16.924;2023-03-11T12:05:21;9.88;;;7.10;;
49458;SDS011;35354;51.296;16.924;2023-03-11T12:10:38;11.75;;;8.13;;
49458;SDS011;35354;51.296;16.924;2023-03-11T12:19:16;18.25;;;10.30;;
49458;SDS011;35354;51.296;16.924;2023-03-11T12:24:39;13.35;;;8.00;;
49458;SDS011;35354;51.296;16.924;2023-03-11T12:27:20;11.40;;;7.47;;
49458;SDS011;35354;51.296;16.924;2023-03-11T12:29:50;15.02;;;7.25;;
49458;SDS011;35354;51.296;16.924;2023-03-11T12:32:23;10.60;;;6.75;;
49458;SDS011;35354;51.296;16.924;2023-03-11T12:43:55;13.32;;;8.07;;
49458;SDS011;35354;51.296;16.924;2023-03-11T12:46:13;12.38;;;7.60;;
49458;SDS011;35354;51.296;16.924;2023-03-11T12:53:59;11.80;;;7.80;;
49458;SDS011;35354;51.296;16.924;2023-03-11T12:56:43;12.80;;;8.07;;
49458;SDS011;35354;51.296;16.924;2023-03-11T13:04:50;10.10;;;7.30;;
49458;SDS011;35354;51.296;16.924;2023-03-11T13:10:16;11.38;;;8.15;;
49458;SDS011;35354;51.296;16.924;2023-03-11T13:12:48;8.75;;;6.22;;
49458;SDS011;35354;51.296;16.924;2023-03-11T13:26:04;8.35;;;6.30;;
49458;SDS011;35354;51.296;16.924;2023-03-11T13:37:12;21.10;;;10.45;;
49458;SDS011;35354;51.296;16.924;2023-03-11T13:42:48;18.10;;;8.88;;
49458;SDS011;35354;51.296;16.924;2023-03-11T13:45:20;12.50;;;8.30;;
49458;SDS011;35354;51.296;16.924;2023-03-11T13:47:51;12.02;;;8.32;;
49458;SDS011;35354;51.296;16.924;2023-03-11T13:50:34;11.77;;;7.88;;
49458;SDS011;35354;51.296;16.924;2023-03-11T13:53:07;11.77;;;6.85;;
49458;SDS011;35354;51.296;16.924;2023-03-11T13:55:43;11.60;;;7.05;;
49458;SDS011;35354;51.296;16.924;2023-03-11T13:58:21;11.52;;;8.25;;
49458;SDS011;35354;51.296;16.924;2023-03-11T14:00:48;8.48;;;5.70;;
49458;SDS011;35354;51.296;16.924;2023-03-11T14:03:17;9.05;;;6.22;;
49458;SDS011;35354;51.296;16.924;2023-03-11T14:05:47;10.20;;;5.72;;
49458;SDS011;35354;51.296;16.924;2023-03-11T14:08:20;8.82;;;5.90;;
49458;SDS011;35354;51.296;16.924;2023-03-11T14:10:51;10.10;;;6.25;;
49458;SDS011;35354;51.296;16.924;2023-03-11T14:13:17;10.05;;;6.88;;
49458;SDS011;35354;51.296;16.924;2023-03-11T14:15:50;11.45;;;7.30;;
49458;SDS011;35354;51.296;16.924;2023-03-11T14:20:50;5.50;;;4.38;;
49458;SDS011;35354;51.296;16.924;2023-03-11T14:23:16;11.45;;;7.32;;
49458;SDS011;35354;51.296;16.924;2023-03-11T14:25:43;17.42;;;6.28;;
49458;SDS011;35354;51.296;16.924;2023-03-11T14:28:13;12.45;;;6.78;;
49458;SDS011;35354;51.296;16.924;2023-03-11T14:30:54;8.80;;;5.60;;
49458;SDS011;35354;51.296;16.924;2023-03-11T14:33:22;10.93;;;6.60;;
49458;SDS011;35354;51.296;16.924;2023-03-11T14:35:51;9.52;;;6.30;;
49458;SDS011;35354;51.296;16.924;2023-03-11T14:38:22;12.90;;;7.57;;
49458;SDS011;35354;51.296;16.924;2023-03-11T14:40:50;10.77;;;6.10;;
49458;SDS011;35354;51.296;16.924;2023-03-11T14:43:18;10.65;;;6.80;;
49458;SDS011;35354;51.296;16.924;2023-03-11T14:45:45;10.43;;;7.13;;
49458;SDS011;35354;51.296;16.924;2023-03-11T14:50:47;9.63;;;6.50;;
49458;SDS011;35354;51.296;16.924;2023-03-11T14:53:18;9.80;;;5.22;;
49458;SDS011;35354;51.296;16.924;2023-03-11T14:55:49;12.48;;;7.32;;
49458;SDS011;35354;51.296;16.924;2023-03-11T14:58:30;14.73;;;11.45;;
49458;SDS011;35354;51.296;16.924;2023-03-11T15:03:38;9.68;;;6.57;;
49458;SDS011;35354;51.296;16.924;2023-03-11T15:06:24;14.25;;;8.50;;
49458;SDS011;35354;51.296;16.924;2023-03-11T15:09:11;14.65;;;7.63;;
49458;SDS011;35354;51.296;16.924;2023-03-11T15:19:45;12.23;;;6.80;;
49458;SDS011;35354;51.296;16.924;2023-03-11T15:24:49;12.38;;;6.68;;
49458;SDS011;35354;51.296;16.924;2023-03-11T15:27:22;11.48;;;7.20;;
49458;SDS011;35354;51.296;16.924;2023-03-11T15:29:50;18.70;;;9.45;;
49458;SDS011;35354;51.296;16.924;2023-03-11T15:32:34;14.27;;;7.57;;
49458;SDS011;35354;51.296;16.924;2023-03-11T15:35:11;11.00;;;6.00;;
49458;SDS011;35354;51.296;16.924;2023-03-11T15:37:38;8.30;;;6.00;;
49458;SDS011;35354;51.296;16.924;2023-03-11T15:40:09;14.07;;;9.30;;
49458;SDS011;35354;51.296;16.924;2023-03-11T15:42:44;10.57;;;7.88;;
49458;SDS011;35354;51.296;16.924;2023-03-11T15:45:17;7.57;;;5.95;;
49458;SDS011;35354;51.296;16.924;2023-03-11T15:47:44;11.93;;;7.05;;
49458;SDS011;35354;51.296;16.924;2023-03-11T15:50:15;9.98;;;6.57;;
49458;SDS011;35354;51.296;16.924;2023-03-11T15:52:44;11.30;;;6.72;;
49458;SDS011;35354;51.296;16.924;2023-03-11T15:55:12;11.40;;;6.93;;
49458;SDS011;35354;51.296;16.924;2023-03-11T15:57:38;11.88;;;7.90;;
49458;SDS011;35354;51.296;16.924;2023-03-11T16:00:15;12.68;;;8.07;;
49458;SDS011;35354;51.296;16.924;2023-03-11T16:02:46;14.32;;;8.13;;
49458;SDS011;35354;51.296;16.924;2023-03-11T16:05:16;14.02;;;8.73;;
49458;SDS011;35354;51.296;16.924;2023-03-11T16:07:44;15.93;;;8.73;;
49458;SDS011;35354;51.296;16.924;2023-03-11T16:10:11;13.07;;;8.60;;
49458;SDS011;35354;51.296;16.924;2023-03-11T16:12:38;16.10;;;9.63;;
49458;SDS011;35354;51.296;16.924;2023-03-11T16:15:04;15.52;;;9.88;;
49458;SDS011;35354;51.296;16.924;2023-03-11T16:17:31;17.92;;;10.52;;
49458;SDS011;35354;51.296;16.924;2023-03-11T16:19:56;15.82;;;9.20;;
49458;SDS011;35354;51.296;16.924;2023-03-11T16:22:31;12.95;;;8.30;;
49458;SDS011;35354;51.296;16.924;2023-03-11T16:25:00;18.13;;;9.57;;
49458;SDS011;35354;51.296;16.924;2023-03-11T16:27:26;27.63;;;13.07;;
49458;SDS011;35354;51.296;16.924;2023-03-11T16:29:52;15.10;;;7.78;;
49458;SDS011;35354;51.296;16.924;2023-03-11T16:32:18;25.50;;;10.63;;
49458;SDS011;35354;51.296;16.924;2023-03-11T16:34:44;29.58;;;13.98;;
49458;SDS011;35354;51.296;16.924;2023-03-11T16:37:10;30.27;;;15.65;;
49458;SDS011;35354;51.296;16.924;2023-03-11T16:39:40;37.67;;;18.02;;
49458;SDS011;35354;51.296;16.924;2023-03-11T16:42:31;39.47;;;18.70;;
49458;SDS011;35354;51.296;16.924;2023-03-11T16:44:57;15.25;;;8.13;;
49458;SDS011;35354;51.296;16.924;2023-03-11T16:47:23;14.77;;;8.38;;
49458;SDS011;35354;51.296;16.924;2023-03-11T16:49:48;17.13;;;9.18;;